sensor_id;sensor_type;location;lat;lon;timestamp;temperature;humidity
23147;DHT22;11742;53.532;-1.478;2024-02-14T00:01:49;11.70;99.90
23147;DHT22;11742;53.532;-1.478;2024-02-14T00:04:34;11.70;99.90
23147;DHT22;11742;53.532;-1.478;2024-02-14T00:07:19;11.70;99.90
23147;DHT22;11742;53.532;-1.478;2024-02-14T00:10:04;11.70;99.90
23147;DHT22;11742;53.532;-1.478;2024-02-14T00:12:49;11.60;99.90
23147;DHT22;11742;53.532;-1.478;2024-02-14T00:15:35;11.60;99.90
23147;DHT22;11742;53.532;-1.478;2024-02-14T00:18:19;11.60;99.90
23147;DHT22;11742;53.532;-1.478;2024-02-14T00:21:04;11.60;99.90
23147;DHT22;11742;53.532;-1.478;2024-02-14T00:23:48;11.60;99.90
23147;DHT22;11742;53.532;-1.478;2024-02-14T00:26:32;11.60;99.90
23147;DHT22;11742;53.532;-1.478;2024-02-14T00:29:17;11.60;99.90
23147;DHT22;11742;53.532;-1.478;2024-02-14T00:32:02;11.60;99.90
23147;DHT22;11742;53.532;-1.478;2024-02-14T00:34:46;11.60;99.90
23147;DHT22;11742;53.532;-1.478;2024-02-14T00:37:31;11.60;99.90
23147;DHT22;11742;53.532;-1.478;2024-02-14T00:40:17;11.60;99.90
23147;DHT22;11742;53.532;-1.478;2024-02-14T00:43:02;11.60;99.90
23147;DHT22;11742;53.532;-1.478;2024-02-14T00:45:46;11.70;99.90
23147;DHT22;11742;53.532;-1.478;2024-02-14T00:48:32;11.60;99.90
23147;DHT22;11742;53.532;-1.478;2024-02-14T00:51:17;11.60;99.90
23147;DHT22;11742;53.532;-1.478;2024-02-14T00:54:01;11.60;99.90
23147;DHT22;11742;53.532;-1.478;2024-02-14T00:56:45;11.60;99.90
23147;DHT22;11742;53.532;-1.478;2024-02-14T00:59:29;11.60;99.90
23147;DHT22;11742;53.532;-1.478;2024-02-14T01:02:13;11.60;99.90
23147;DHT22;11742;53.532;-1.478;2024-02-14T01:04:57;11.60;99.90
23147;DHT22;11742;53.532;-1.478;2024-02-14T01:07:41;11.60;99.90
23147;DHT22;11742;53.532;-1.478;2024-02-14T01:10:25;11.60;99.90
23147;DHT22;11742;53.532;-1.478;2024-02-14T01:13:09;11.60;99.90
23147;DHT22;11742;53.532;-1.478;2024-02-14T01:15:53;11.60;99.90
23147;DHT22;11742;53.532;-1.478;2024-02-14T01:18:37;11.60;99.90
23147;DHT22;11742;53.532;-1.478;2024-02-14T01:21:22;11.60;99.90
23147;DHT22;11742;53.532;-1.478;2024-02-14T01:24:06;11.60;99.90
23147;DHT22;11742;53.532;-1.478;2024-02-14T01:26:53;11.60;99.90
23147;DHT22;11742;53.532;-1.478;2024-02-14T01:29:38;11.60;99.90
23147;DHT22;11742;53.532;-1.478;2024-02-14T01:32:22;11.60;99.90
23147;DHT22;11742;53.532;-1.478;2024-02-14T01:35:07;11.60;99.90
23147;DHT22;11742;53.532;-1.478;2024-02-14T01:37:53;11.60;99.90
23147;DHT22;11742;53.532;-1.478;2024-02-14T01:40:41;11.60;99.90
23147;DHT22;11742;53.532;-1.478;2024-02-14T01:43:26;11.60;99.90
23147;DHT22;11742;53.532;-1.478;2024-02-14T01:46:10;11.60;99.90
23147;DHT22;11742;53.532;-1.478;2024-02-14T01:48:55;11.60;99.90
23147;DHT22;11742;53.532;-1.478;2024-02-14T01:51:41;11.60;99.90
23147;DHT22;11742;53.532;-1.478;2024-02-14T01:54:29;11.60;99.90
23147;DHT22;11742;53.532;-1.478;2024-02-14T01:57:14;11.60;99.90
23147;DHT22;11742;53.532;-1.478;2024-02-14T02:00:00;11.60;99.90
23147;DHT22;11742;53.532;-1.478;2024-02-14T02:02:48;11.60;99.90
23147;DHT22;11742;53.532;-1.478;2024-02-14T02:05:33;11.60;99.90
23147;DHT22;11742;53.532;-1.478;2024-02-14T02:08:18;11.60;99.90
23147;DHT22;11742;53.532;-1.478;2024-02-14T02:11:02;11.60;99.90
23147;DHT22;11742;53.532;-1.478;2024-02-14T02:13:47;11.60;99.90
23147;DHT22;11742;53.532;-1.478;2024-02-14T02:16:31;11.60;99.90
23147;DHT22;11742;53.532;-1.478;2024-02-14T02:19:17;11.60;99.90
23147;DHT22;11742;53.532;-1.478;2024-02-14T02:22:02;11.60;99.90
23147;DHT22;11742;53.532;-1.478;2024-02-14T02:24:49;11.60;99.90
23147;DHT22;11742;53.532;-1.478;2024-02-14T02:27:34;11.60;99.90
23147;DHT22;11742;53.532;-1.478;2024-02-14T02:30:21;11.60;99.90
23147;DHT22;11742;53.532;-1.478;2024-02-14T02:33:05;11.60;99.90
23147;DHT22;11742;53.532;-1.478;2024-02-14T02:35:50;11.60;99.90
23147;DHT22;11742;53.532;-1.478;2024-02-14T02:38:35;11.60;99.90
23147;DHT22;11742;53.532;-1.478;2024-02-14T02:41:20;11.60;99.90
23147;DHT22;11742;53.532;-1.478;2024-02-14T02:44:04;11.60;99.90
23147;DHT22;11742;53.532;-1.478;2024-02-14T02:46:50;11.60;99.90
23147;DHT22;11742;53.532;-1.478;2024-02-14T02:49:35;11.60;99.90
23147;DHT22;11742;53.532;-1.478;2024-02-14T02:52:21;11.60;99.90
23147;DHT22;11742;53.532;-1.478;2024-02-14T02:55:05;11.60;99.90
23147;DHT22;11742;53.532;-1.478;2024-02-14T02:57:50;11.60;99.90
23147;DHT22;11742;53.532;-1.478;2024-02-14T03:00:36;11.60;99.90
23147;DHT22;11742;53.532;-1.478;2024-02-14T03:03:20;11.60;99.90
23147;DHT22;11742;53.532;-1.478;2024-02-14T03:06:05;11.60;99.90
23147;DHT22;11742;53.532;-1.478;2024-02-14T03:08:50;11.60;99.90
23147;DHT22;11742;53.532;-1.478;2024-02-14T03:11:36;11.60;99.90
23147;DHT22;11742;53.532;-1.478;2024-02-14T03:14:21;11.60;99.90
23147;DHT22;11742;53.532;-1.478;2024-02-14T03:17:06;11.60;99.90
23147;DHT22;11742;53.532;-1.478;2024-02-14T03:19:53;11.60;99.90
23147;DHT22;11742;53.532;-1.478;2024-02-14T03:22:37;11.60;99.90
23147;DHT22;11742;53.532;-1.478;2024-02-14T03:25:22;11.70;99.90
23147;DHT22;11742;53.532;-1.478;2024-02-14T03:28:08;11.60;99.90
23147;DHT22;11742;53.532;-1.478;2024-02-14T03:30:53;11.60;99.90
23147;DHT22;11742;53.532;-1.478;2024-02-14T03:33:37;11.60;99.90
23147;DHT22;11742;53.532;-1.478;2024-02-14T03:36:21;11.60;99.90
23147;DHT22;11742;53.532;-1.478;2024-02-14T03:39:08;11.60;99.90
23147;DHT22;11742;53.532;-1.478;2024-02-14T03:41:52;11.70;99.90
23147;DHT22;11742;53.532;-1.478;2024-02-14T03:44:38;11.60;99.90
23147;DHT22;11742;53.532;-1.478;2024-02-14T03:47:23;11.70;99.90
23147;DHT22;11742;53.532;-1.478;2024-02-14T03:50:10;11.70;99.90
23147;DHT22;11742;53.532;-1.478;2024-02-14T03:52:55;11.70;99.90
23147;DHT22;11742;53.532;-1.478;2024-02-14T03:55:39;11.70;99.90
23147;DHT22;11742;53.532;-1.478;2024-02-14T03:58:23;11.70;99.90
23147;DHT22;11742;53.532;-1.478;2024-02-14T04:01:08;11.70;99.90
23147;DHT22;11742;53.532;-1.478;2024-02-14T04:03:52;11.70;99.90
23147;DHT22;11742;53.532;-1.478;2024-02-14T04:06:37;11.70;99.90
23147;DHT22;11742;53.532;-1.478;2024-02-14T04:09:21;11.70;99.90
23147;DHT22;11742;53.532;-1.478;2024-02-14T04:12:06;11.70;99.90
23147;DHT22;11742;53.532;-1.478;2024-02-14T04:14:50;11.70;99.90
23147;DHT22;11742;53.532;-1.478;2024-02-14T04:17:34;11.70;99.90
23147;DHT22;11742;53.532;-1.478;2024-02-14T04:20:18;11.70;99.90
23147;DHT22;11742;53.532;-1.478;2024-02-14T04:23:03;11.70;99.90
23147;DHT22;11742;53.532;-1.478;2024-02-14T04:25:49;11.70;99.90
23147;DHT22;11742;53.532;-1.478;2024-02-14T04:28:34;11.70;99.90
23147;DHT22;11742;53.532;-1.478;2024-02-14T04:31:18;11.70;99.90
23147;DHT22;11742;53.532;-1.478;2024-02-14T04:34:02;11.70;99.90
23147;DHT22;11742;53.532;-1.478;2024-02-14T04:36:47;11.80;99.90
23147;DHT22;11742;53.532;-1.478;2024-02-14T04:39:31;11.80;99.90
23147;DHT22;11742;53.532;-1.478;2024-02-14T04:42:15;11.80;99.90
23147;DHT22;11742;53.532;-1.478;2024-02-14T04:44:59;11.80;99.90
23147;DHT22;11742;53.532;-1.478;2024-02-14T04:47:44;11.80;99.90
23147;DHT22;11742;53.532;-1.478;2024-02-14T04:50:28;11.80;99.90
23147;DHT22;11742;53.532;-1.478;2024-02-14T04:53:13;11.80;99.90
23147;DHT22;11742;53.532;-1.478;2024-02-14T04:55:58;11.80;99.90
23147;DHT22;11742;53.532;-1.478;2024-02-14T04:58:42;11.80;99.90
23147;DHT22;11742;53.532;-1.478;2024-02-14T05:01:27;11.80;99.90
23147;DHT22;11742;53.532;-1.478;2024-02-14T05:04:12;11.80;99.90
23147;DHT22;11742;53.532;-1.478;2024-02-14T05:06:57;11.80;99.90
23147;DHT22;11742;53.532;-1.478;2024-02-14T05:09:41;11.80;99.90
23147;DHT22;11742;53.532;-1.478;2024-02-14T05:12:25;11.80;99.90
23147;DHT22;11742;53.532;-1.478;2024-02-14T05:15:10;11.90;99.90
23147;DHT22;11742;53.532;-1.478;2024-02-14T05:17:55;11.90;99.90
23147;DHT22;11742;53.532;-1.478;2024-02-14T05:20:40;11.90;99.90
23147;DHT22;11742;53.532;-1.478;2024-02-14T05:23:24;11.90;99.90
23147;DHT22;11742;53.532;-1.478;2024-02-14T05:26:08;11.90;99.90
23147;DHT22;11742;53.532;-1.478;2024-02-14T05:28:53;11.90;99.90
23147;DHT22;11742;53.532;-1.478;2024-02-14T05:31:44;11.90;99.90
23147;DHT22;11742;53.532;-1.478;2024-02-14T05:34:29;11.90;99.90
23147;DHT22;11742;53.532;-1.478;2024-02-14T05:37:13;11.90;99.90
23147;DHT22;11742;53.532;-1.478;2024-02-14T05:39:58;11.90;99.90
23147;DHT22;11742;53.532;-1.478;2024-02-14T05:42:42;11.90;99.90
23147;DHT22;11742;53.532;-1.478;2024-02-14T05:45:27;11.90;99.90
23147;DHT22;11742;53.532;-1.478;2024-02-14T05:48:11;12.00;99.90
23147;DHT22;11742;53.532;-1.478;2024-02-14T05:50:56;12.00;99.90
23147;DHT22;11742;53.532;-1.478;2024-02-14T05:53:40;12.00;99.90
23147;DHT22;11742;53.532;-1.478;2024-02-14T05:56:24;12.00;99.90
23147;DHT22;11742;53.532;-1.478;2024-02-14T05:59:09;12.00;99.90
23147;DHT22;11742;53.532;-1.478;2024-02-14T06:01:54;12.00;99.90
23147;DHT22;11742;53.532;-1.478;2024-02-14T06:04:38;12.00;99.90
23147;DHT22;11742;53.532;-1.478;2024-02-14T06:07:22;12.00;99.90
23147;DHT22;11742;53.532;-1.478;2024-02-14T06:10:07;12.00;99.90
23147;DHT22;11742;53.532;-1.478;2024-02-14T06:12:52;12.00;99.90
23147;DHT22;11742;53.532;-1.478;2024-02-14T06:15:36;12.00;99.90
23147;DHT22;11742;53.532;-1.478;2024-02-14T06:18:20;12.10;99.90
23147;DHT22;11742;53.532;-1.478;2024-02-14T06:21:04;12.10;99.90
23147;DHT22;11742;53.532;-1.478;2024-02-14T06:23:48;12.10;99.90
23147;DHT22;11742;53.532;-1.478;2024-02-14T06:26:33;12.10;99.90
23147;DHT22;11742;53.532;-1.478;2024-02-14T06:29:18;12.10;99.90
23147;DHT22;11742;53.532;-1.478;2024-02-14T06:32:02;12.10;99.90
23147;DHT22;11742;53.532;-1.478;2024-02-14T06:34:47;12.10;99.90
23147;DHT22;11742;53.532;-1.478;2024-02-14T06:37:32;12.10;99.90
23147;DHT22;11742;53.532;-1.478;2024-02-14T06:40:16;12.10;99.90
23147;DHT22;11742;53.532;-1.478;2024-02-14T06:43:01;12.10;99.90
23147;DHT22;11742;53.532;-1.478;2024-02-14T06:45:45;12.10;99.90
23147;DHT22;11742;53.532;-1.478;2024-02-14T06:48:30;12.10;99.90
23147;DHT22;11742;53.532;-1.478;2024-02-14T06:51:14;12.20;99.90
23147;DHT22;11742;53.532;-1.478;2024-02-14T06:53:58;12.20;99.90
23147;DHT22;11742;53.532;-1.478;2024-02-14T06:56:42;12.20;99.90
23147;DHT22;11742;53.532;-1.478;2024-02-14T06:59:27;12.20;99.90
23147;DHT22;11742;53.532;-1.478;2024-02-14T07:02:11;12.20;99.90
23147;DHT22;11742;53.532;-1.478;2024-02-14T07:04:55;12.20;99.90
23147;DHT22;11742;53.532;-1.478;2024-02-14T07:07:41;12.20;99.90
23147;DHT22;11742;53.532;-1.478;2024-02-14T07:10:25;12.20;99.90
23147;DHT22;11742;53.532;-1.478;2024-02-14T07:13:09;12.20;99.90
23147;DHT22;11742;53.532;-1.478;2024-02-14T07:15:53;12.20;99.90
23147;DHT22;11742;53.532;-1.478;2024-02-14T07:18:38;12.20;99.90
23147;DHT22;11742;53.532;-1.478;2024-02-14T07:21:22;12.20;99.90
23147;DHT22;11742;53.532;-1.478;2024-02-14T07:24:06;12.20;99.90
23147;DHT22;11742;53.532;-1.478;2024-02-14T07:26:50;12.20;99.90
23147;DHT22;11742;53.532;-1.478;2024-02-14T07:29:34;12.20;99.90
23147;DHT22;11742;53.532;-1.478;2024-02-14T07:32:20;12.20;99.90
23147;DHT22;11742;53.532;-1.478;2024-02-14T07:35:06;12.20;99.90
23147;DHT22;11742;53.532;-1.478;2024-02-14T07:37:50;12.20;99.90
23147;DHT22;11742;53.532;-1.478;2024-02-14T07:40:34;12.30;99.90
23147;DHT22;11742;53.532;-1.478;2024-02-14T07:43:19;12.30;99.90
23147;DHT22;11742;53.532;-1.478;2024-02-14T07:46:04;12.30;99.90
23147;DHT22;11742;53.532;-1.478;2024-02-14T07:48:49;12.30;99.90
23147;DHT22;11742;53.532;-1.478;2024-02-14T07:51:34;12.30;99.90
23147;DHT22;11742;53.532;-1.478;2024-02-14T07:54:20;12.30;99.90
23147;DHT22;11742;53.532;-1.478;2024-02-14T07:57:04;12.30;99.90
23147;DHT22;11742;53.532;-1.478;2024-02-14T07:59:53;12.30;99.90
23147;DHT22;11742;53.532;-1.478;2024-02-14T08:02:38;12.30;99.90
23147;DHT22;11742;53.532;-1.478;2024-02-14T08:05:22;12.30;99.90
23147;DHT22;11742;53.532;-1.478;2024-02-14T08:08:07;12.30;99.90
23147;DHT22;11742;53.532;-1.478;2024-02-14T08:10:51;12.40;99.90
23147;DHT22;11742;53.532;-1.478;2024-02-14T08:13:35;12.30;99.90
23147;DHT22;11742;53.532;-1.478;2024-02-14T08:16:20;12.40;99.90
23147;DHT22;11742;53.532;-1.478;2024-02-14T08:19:05;12.40;99.90
23147;DHT22;11742;53.532;-1.478;2024-02-14T08:21:49;12.40;99.90
23147;DHT22;11742;53.532;-1.478;2024-02-14T08:24:33;12.40;99.90
23147;DHT22;11742;53.532;-1.478;2024-02-14T08:27:17;12.40;99.90
23147;DHT22;11742;53.532;-1.478;2024-02-14T08:30:01;12.40;99.90
23147;DHT22;11742;53.532;-1.478;2024-02-14T08:32:45;12.40;99.90
23147;DHT22;11742;53.532;-1.478;2024-02-14T08:35:29;12.40;99.90
23147;DHT22;11742;53.532;-1.478;2024-02-14T08:38:14;12.40;99.90
23147;DHT22;11742;53.532;-1.478;2024-02-14T08:40:58;12.50;99.90
23147;DHT22;11742;53.532;-1.478;2024-02-14T08:43:42;12.40;99.90
23147;DHT22;11742;53.532;-1.478;2024-02-14T08:46:26;12.50;99.90
23147;DHT22;11742;53.532;-1.478;2024-02-14T08:49:12;12.50;99.90
23147;DHT22;11742;53.532;-1.478;2024-02-14T08:51:56;12.50;99.90
23147;DHT22;11742;53.532;-1.478;2024-02-14T08:54:40;12.50;99.90
23147;DHT22;11742;53.532;-1.478;2024-02-14T08:57:24;12.50;99.90
23147;DHT22;11742;53.532;-1.478;2024-02-14T09:00:10;12.50;99.90
23147;DHT22;11742;53.532;-1.478;2024-02-14T09:02:58;12.50;99.90
23147;DHT22;11742;53.532;-1.478;2024-02-14T09:05:44;12.60;99.90
23147;DHT22;11742;53.532;-1.478;2024-02-14T09:08:28;12.60;99.90
23147;DHT22;11742;53.532;-1.478;2024-02-14T09:11:13;12.60;99.90
23147;DHT22;11742;53.532;-1.478;2024-02-14T09:13:57;12.60;99.90
23147;DHT22;11742;53.532;-1.478;2024-02-14T09:16:48;12.60;99.90
23147;DHT22;11742;53.532;-1.478;2024-02-14T09:19:32;12.60;99.90
23147;DHT22;11742;53.532;-1.478;2024-02-14T09:22:16;12.60;99.90
23147;DHT22;11742;53.532;-1.478;2024-02-14T09:25:05;12.70;99.90
23147;DHT22;11742;53.532;-1.478;2024-02-14T09:27:49;12.70;99.90
23147;DHT22;11742;53.532;-1.478;2024-02-14T09:30:34;12.70;99.90
23147;DHT22;11742;53.532;-1.478;2024-02-14T09:33:18;12.70;99.90
23147;DHT22;11742;53.532;-1.478;2024-02-14T09:36:03;12.70;99.90
23147;DHT22;11742;53.532;-1.478;2024-02-14T09:38:48;12.80;99.90
23147;DHT22;11742;53.532;-1.478;2024-02-14T09:41:37;12.70;99.90
23147;DHT22;11742;53.532;-1.478;2024-02-14T09:44:21;12.80;99.90
23147;DHT22;11742;53.532;-1.478;2024-02-14T09:47:06;12.80;99.90
23147;DHT22;11742;53.532;-1.478;2024-02-14T09:49:52;12.80;99.90
23147;DHT22;11742;53.532;-1.478;2024-02-14T09:52:38;12.80;99.90
23147;DHT22;11742;53.532;-1.478;2024-02-14T09:55:23;12.80;99.90
23147;DHT22;11742;53.532;-1.478;2024-02-14T09:58:09;12.90;99.90
23147;DHT22;11742;53.532;-1.478;2024-02-14T10:00:54;12.90;99.90
23147;DHT22;11742;53.532;-1.478;2024-02-14T10:03:38;12.90;99.90
23147;DHT22;11742;53.532;-1.478;2024-02-14T10:06:23;12.90;99.90
23147;DHT22;11742;53.532;-1.478;2024-02-14T10:09:10;13.00;99.90
23147;DHT22;11742;53.532;-1.478;2024-02-14T10:11:54;13.00;99.90
23147;DHT22;11742;53.532;-1.478;2024-02-14T10:14:39;13.00;99.90
23147;DHT22;11742;53.532;-1.478;2024-02-14T10:17:22;13.10;99.90
23147;DHT22;11742;53.532;-1.478;2024-02-14T10:20:07;13.10;99.90
23147;DHT22;11742;53.532;-1.478;2024-02-14T10:22:59;13.10;99.90
23147;DHT22;11742;53.532;-1.478;2024-02-14T10:25:44;13.20;99.90
23147;DHT22;11742;53.532;-1.478;2024-02-14T10:28:28;13.20;99.90
23147;DHT22;11742;53.532;-1.478;2024-02-14T10:31:14;13.20;99.90
23147;DHT22;11742;53.532;-1.478;2024-02-14T10:33:58;13.30;99.90
23147;DHT22;11742;53.532;-1.478;2024-02-14T10:36:45;13.30;99.90
23147;DHT22;11742;53.532;-1.478;2024-02-14T10:39:29;13.30;99.90
23147;DHT22;11742;53.532;-1.478;2024-02-14T10:42:15;13.40;99.90
23147;DHT22;11742;53.532;-1.478;2024-02-14T10:45:00;13.40;99.90
23147;DHT22;11742;53.532;-1.478;2024-02-14T10:47:48;13.40;99.90
23147;DHT22;11742;53.532;-1.478;2024-02-14T10:50:36;13.40;99.90
23147;DHT22;11742;53.532;-1.478;2024-02-14T10:53:26;13.50;99.90
23147;DHT22;11742;53.532;-1.478;2024-02-14T10:56:19;13.50;99.90
23147;DHT22;11742;53.532;-1.478;2024-02-14T10:59:04;13.50;99.90
23147;DHT22;11742;53.532;-1.478;2024-02-14T11:01:51;13.60;99.90
23147;DHT22;11742;53.532;-1.478;2024-02-14T11:04:36;13.60;99.90
23147;DHT22;11742;53.532;-1.478;2024-02-14T11:07:21;13.60;99.90
23147;DHT22;11742;53.532;-1.478;2024-02-14T11:10:07;13.60;99.90
23147;DHT22;11742;53.532;-1.478;2024-02-14T11:12:54;13.60;99.90
23147;DHT22;11742;53.532;-1.478;2024-02-14T11:15:38;13.70;99.90
23147;DHT22;11742;53.532;-1.478;2024-02-14T11:18:28;13.70;99.90
23147;DHT22;11742;53.532;-1.478;2024-02-14T11:21:17;13.70;99.90
23147;DHT22;11742;53.532;-1.478;2024-02-14T11:24:06;13.70;99.90
23147;DHT22;11742;53.532;-1.478;2024-02-14T11:26:55;13.80;99.90
23147;DHT22;11742;53.532;-1.478;2024-02-14T11:29:40;13.80;99.90
23147;DHT22;11742;53.532;-1.478;2024-02-14T11:32:27;13.80;99.90
23147;DHT22;11742;53.532;-1.478;2024-02-14T11:35:12;13.90;99.90
23147;DHT22;11742;53.532;-1.478;2024-02-14T11:37:57;13.90;99.90
23147;DHT22;11742;53.532;-1.478;2024-02-14T11:40:41;14.00;99.90
23147;DHT22;11742;53.532;-1.478;2024-02-14T11:43:26;14.00;99.90
23147;DHT22;11742;53.532;-1.478;2024-02-14T11:46:11;14.00;99.90
23147;DHT22;11742;53.532;-1.478;2024-02-14T11:48:55;14.10;99.90
23147;DHT22;11742;53.532;-1.478;2024-02-14T11:51:39;14.10;99.90
23147;DHT22;11742;53.532;-1.478;2024-02-14T11:54:25;14.10;99.90
23147;DHT22;11742;53.532;-1.478;2024-02-14T11:57:09;14.20;99.90
23147;DHT22;11742;53.532;-1.478;2024-02-14T11:59:53;14.20;99.90
23147;DHT22;11742;53.532;-1.478;2024-02-14T12:02:38;14.30;99.90
23147;DHT22;11742;53.532;-1.478;2024-02-14T12:05:23;14.30;99.90
23147;DHT22;11742;53.532;-1.478;2024-02-14T12:08:08;14.30;99.90
23147;DHT22;11742;53.532;-1.478;2024-02-14T12:10:53;14.40;99.90
23147;DHT22;11742;53.532;-1.478;2024-02-14T12:13:38;14.40;99.90
23147;DHT22;11742;53.532;-1.478;2024-02-14T12:16:27;14.40;99.90
23147;DHT22;11742;53.532;-1.478;2024-02-14T12:19:15;14.50;99.90
23147;DHT22;11742;53.532;-1.478;2024-02-14T12:22:00;14.50;99.90
23147;DHT22;11742;53.532;-1.478;2024-02-14T12:24:46;14.50;99.90
23147;DHT22;11742;53.532;-1.478;2024-02-14T12:27:34;14.60;99.90
23147;DHT22;11742;53.532;-1.478;2024-02-14T12:30:18;14.60;99.90
23147;DHT22;11742;53.532;-1.478;2024-02-14T12:33:05;14.70;99.90
23147;DHT22;11742;53.532;-1.478;2024-02-14T12:35:54;14.70;99.90
23147;DHT22;11742;53.532;-1.478;2024-02-14T12:38:40;14.80;99.90
23147;DHT22;11742;53.532;-1.478;2024-02-14T12:41:25;14.80;99.90
23147;DHT22;11742;53.532;-1.478;2024-02-14T12:44:13;14.80;99.90
23147;DHT22;11742;53.532;-1.478;2024-02-14T12:46:58;14.90;99.90
23147;DHT22;11742;53.532;-1.478;2024-02-14T12:49:42;14.90;99.90
23147;DHT22;11742;53.532;-1.478;2024-02-14T12:52:27;15.00;99.90
23147;DHT22;11742;53.532;-1.478;2024-02-14T12:55:12;15.00;99.90
23147;DHT22;11742;53.532;-1.478;2024-02-14T12:57:57;15.00;99.90
23147;DHT22;11742;53.532;-1.478;2024-02-14T13:00:41;15.10;99.90
23147;DHT22;11742;53.532;-1.478;2024-02-14T13:03:27;15.10;99.90
23147;DHT22;11742;53.532;-1.478;2024-02-14T13:06:14;15.10;99.90
23147;DHT22;11742;53.532;-1.478;2024-02-14T13:09:00;15.20;99.90
23147;DHT22;11742;53.532;-1.478;2024-02-14T13:11:44;15.20;99.90
23147;DHT22;11742;53.532;-1.478;2024-02-14T13:14:29;15.20;99.90
23147;DHT22;11742;53.532;-1.478;2024-02-14T13:17:16;15.30;99.90
23147;DHT22;11742;53.532;-1.478;2024-02-14T13:20:01;15.30;99.90
23147;DHT22;11742;53.532;-1.478;2024-02-14T13:22:46;15.30;99.90
23147;DHT22;11742;53.532;-1.478;2024-02-14T13:25:30;15.30;99.90
23147;DHT22;11742;53.532;-1.478;2024-02-14T13:28:14;15.40;99.90
23147;DHT22;11742;53.532;-1.478;2024-02-14T13:30:59;15.40;99.90
23147;DHT22;11742;53.532;-1.478;2024-02-14T13:33:43;15.40;99.90
23147;DHT22;11742;53.532;-1.478;2024-02-14T13:36:28;15.50;99.90
23147;DHT22;11742;53.532;-1.478;2024-02-14T13:39:12;15.50;99.90
23147;DHT22;11742;53.532;-1.478;2024-02-14T13:41:56;15.50;99.90
23147;DHT22;11742;53.532;-1.478;2024-02-14T13:44:42;15.50;99.90
23147;DHT22;11742;53.532;-1.478;2024-02-14T13:47:27;15.50;99.90
23147;DHT22;11742;53.532;-1.478;2024-02-14T13:50:11;15.50;99.90
23147;DHT22;11742;53.532;-1.478;2024-02-14T13:52:56;15.60;99.90
23147;DHT22;11742;53.532;-1.478;2024-02-14T13:55:40;15.60;99.90
23147;DHT22;11742;53.532;-1.478;2024-02-14T13:58:24;15.70;99.90
23147;DHT22;11742;53.532;-1.478;2024-02-14T14:01:08;15.70;99.90
23147;DHT22;11742;53.532;-1.478;2024-02-14T14:03:53;15.70;99.90
23147;DHT22;11742;53.532;-1.478;2024-02-14T14:06:39;15.70;99.90
23147;DHT22;11742;53.532;-1.478;2024-02-14T14:09:23;15.70;99.90
23147;DHT22;11742;53.532;-1.478;2024-02-14T14:12:07;15.70;99.90
23147;DHT22;11742;53.532;-1.478;2024-02-14T14:14:51;15.80;99.90
23147;DHT22;11742;53.532;-1.478;2024-02-14T14:17:36;15.80;99.90
23147;DHT22;11742;53.532;-1.478;2024-02-14T14:20:20;15.80;99.90
23147;DHT22;11742;53.532;-1.478;2024-02-14T14:23:06;15.80;99.90
23147;DHT22;11742;53.532;-1.478;2024-02-14T14:25:52;15.90;99.90
23147;DHT22;11742;53.532;-1.478;2024-02-14T14:28:37;15.90;99.90
23147;DHT22;11742;53.532;-1.478;2024-02-14T14:31:21;15.90;99.90
23147;DHT22;11742;53.532;-1.478;2024-02-14T14:34:05;15.90;99.90
23147;DHT22;11742;53.532;-1.478;2024-02-14T14:36:49;16.00;99.90
23147;DHT22;11742;53.532;-1.478;2024-02-14T14:39:34;16.00;99.90
23147;DHT22;11742;53.532;-1.478;2024-02-14T14:42:19;16.00;99.90
23147;DHT22;11742;53.532;-1.478;2024-02-14T14:45:03;16.10;99.90
23147;DHT22;11742;53.532;-1.478;2024-02-14T14:47:47;16.10;99.90
23147;DHT22;11742;53.532;-1.478;2024-02-14T14:50:32;16.10;99.90
23147;DHT22;11742;53.532;-1.478;2024-02-14T14:53:16;16.10;99.90
23147;DHT22;11742;53.532;-1.478;2024-02-14T14:56:00;16.10;99.90
23147;DHT22;11742;53.532;-1.478;2024-02-14T14:58:45;16.20;99.90
23147;DHT22;11742;53.532;-1.478;2024-02-14T15:01:32;16.20;99.90
23147;DHT22;11742;53.532;-1.478;2024-02-14T15:04:18;16.20;99.90
23147;DHT22;11742;53.532;-1.478;2024-02-14T15:07:02;16.20;99.90
23147;DHT22;11742;53.532;-1.478;2024-02-14T15:09:46;16.30;99.90
23147;DHT22;11742;53.532;-1.478;2024-02-14T15:12:31;16.30;99.90
23147;DHT22;11742;53.532;-1.478;2024-02-14T15:15:15;16.30;99.90
23147;DHT22;11742;53.532;-1.478;2024-02-14T15:18:02;16.30;99.90
23147;DHT22;11742;53.532;-1.478;2024-02-14T15:20:46;16.30;99.90
23147;DHT22;11742;53.532;-1.478;2024-02-14T15:23:30;16.30;99.90
23147;DHT22;11742;53.532;-1.478;2024-02-14T15:26:15;16.30;99.90
23147;DHT22;11742;53.532;-1.478;2024-02-14T15:29:01;16.30;99.90
23147;DHT22;11742;53.532;-1.478;2024-02-14T15:32:04;16.40;99.90
23147;DHT22;11742;53.532;-1.478;2024-02-14T15:35:07;16.40;99.90
23147;DHT22;11742;53.532;-1.478;2024-02-14T15:37:55;16.40;99.90
23147;DHT22;11742;53.532;-1.478;2024-02-14T15:40:39;16.40;99.90
23147;DHT22;11742;53.532;-1.478;2024-02-14T15:43:24;16.40;99.90
23147;DHT22;11742;53.532;-1.478;2024-02-14T15:46:11;16.40;99.90
23147;DHT22;11742;53.532;-1.478;2024-02-14T15:48:55;16.40;99.90
23147;DHT22;11742;53.532;-1.478;2024-02-14T15:51:39;16.40;99.90
23147;DHT22;11742;53.532;-1.478;2024-02-14T15:54:24;16.40;99.90
23147;DHT22;11742;53.532;-1.478;2024-02-14T15:57:09;16.50;99.90
23147;DHT22;11742;53.532;-1.478;2024-02-14T15:59:53;16.50;99.90
23147;DHT22;11742;53.532;-1.478;2024-02-14T16:02:38;16.50;99.90
23147;DHT22;11742;53.532;-1.478;2024-02-14T16:05:22;16.50;99.90
23147;DHT22;11742;53.532;-1.478;2024-02-14T16:08:06;16.50;99.90
23147;DHT22;11742;53.532;-1.478;2024-02-14T16:10:50;16.50;99.90
23147;DHT22;11742;53.532;-1.478;2024-02-14T16:13:36;16.50;99.90
23147;DHT22;11742;53.532;-1.478;2024-02-14T16:16:22;16.50;99.90
23147;DHT22;11742;53.532;-1.478;2024-02-14T16:19:06;16.50;99.90
23147;DHT22;11742;53.532;-1.478;2024-02-14T16:21:51;16.60;99.90
23147;DHT22;11742;53.532;-1.478;2024-02-14T16:24:36;16.50;99.90
23147;DHT22;11742;53.532;-1.478;2024-02-14T16:27:20;16.50;99.90
23147;DHT22;11742;53.532;-1.478;2024-02-14T16:30:05;16.50;99.90
23147;DHT22;11742;53.532;-1.478;2024-02-14T16:32:53;16.60;99.90
23147;DHT22;11742;53.532;-1.478;2024-02-14T16:35:38;16.50;99.90
23147;DHT22;11742;53.532;-1.478;2024-02-14T16:38:22;16.60;99.90
23147;DHT22;11742;53.532;-1.478;2024-02-14T16:41:06;16.60;99.90
23147;DHT22;11742;53.532;-1.478;2024-02-14T16:43:50;16.60;99.90
23147;DHT22;11742;53.532;-1.478;2024-02-14T16:46:36;16.60;99.90
23147;DHT22;11742;53.532;-1.478;2024-02-14T16:49:20;16.60;99.90
23147;DHT22;11742;53.532;-1.478;2024-02-14T16:52:05;16.50;99.90
23147;DHT22;11742;53.532;-1.478;2024-02-14T16:54:50;16.60;99.90
23147;DHT22;11742;53.532;-1.478;2024-02-14T16:57:35;16.60;99.90
23147;DHT22;11742;53.532;-1.478;2024-02-14T17:00:20;16.60;99.90
23147;DHT22;11742;53.532;-1.478;2024-02-14T17:03:04;16.60;99.90
23147;DHT22;11742;53.532;-1.478;2024-02-14T17:05:49;16.50;99.90